sensor_id;sensor_type;location;lat;lon;timestamp;pressure;altitude;pressure_sealevel;temperature;humidity
13593;BME280;6867;50.998;4.250;2024-03-02T00:01:24;99500.25;;;7.90;90.34
13593;BME280;6867;50.998;4.250;2024-03-02T00:03:51;99502.72;;;7.67;90.48
13593;BME280;6867;50.998;4.250;2024-03-02T00:06:19;99489.09;;;7.50;90.81
13593;BME280;6867;50.998;4.250;2024-03-02T00:08:46;99505.63;;;7.65;90.63
13593;BME280;6867;50.998;4.250;2024-03-02T00:11:13;99504.88;;;7.58;90.34
13593;BME280;6867;50.998;4.250;2024-03-02T00:13:41;99513.97;;;7.51;91.14
13593;BME280;6867;50.998;4.250;2024-03-02T00:16:10;99516.41;;;7.52;91.04
13593;BME280;6867;50.998;4.250;2024-03-02T00:18:38;99515.66;;;7.45;90.96
13593;BME280;6867;50.998;4.250;2024-03-02T00:21:06;99510.72;;;7.48;90.88
13593;BME280;6867;50.998;4.250;2024-03-02T00:23:35;99510.97;;;7.65;90.95
13593;BME280;6867;50.998;4.250;2024-03-02T00:26:02;99497.56;;;7.47;91.27
13593;BME280;6867;50.998;4.250;2024-03-02T00:28:31;99498.28;;;7.61;90.94
13593;BME280;6867;50.998;4.250;2024-03-02T00:31:02;99501.03;;;7.72;90.88
13593;BME280;6867;50.998;4.250;2024-03-02T00:33:33;99506.50;;;7.59;90.56
13593;BME280;6867;50.998;4.250;2024-03-02T00:36:03;99510.97;;;7.65;90.37
13593;BME280;6867;50.998;4.250;2024-03-02T00:38:30;99523.47;;;7.46;90.72
13593;BME280;6867;50.998;4.250;2024-03-02T00:40:59;99543.06;;;7.65;90.69
13593;BME280;6867;50.998;4.250;2024-03-02T00:43:42;99522.59;;;7.78;90.38
13593;BME280;6867;50.998;4.250;2024-03-02T00:46:12;99497.25;;;7.80;89.62
13593;BME280;6867;50.998;4.250;2024-03-02T00:48:48;99509.22;;;7.78;89.44
13593;BME280;6867;50.998;4.250;2024-03-02T00:51:19;99505.53;;;7.97;88.89
13593;BME280;6867;50.998;4.250;2024-03-02T00:53:45;99501.94;;;7.85;88.86
13593;BME280;6867;50.998;4.250;2024-03-02T00:56:13;99508.38;;;7.77;88.54
13593;BME280;6867;50.998;4.250;2024-03-02T00:58:40;99522.75;;;7.83;88.64
13593;BME280;6867;50.998;4.250;2024-03-02T01:01:07;99534.22;;;8.08;88.25
13593;BME280;6867;50.998;4.250;2024-03-02T01:03:33;99523.56;;;8.02;88.04
13593;BME280;6867;50.998;4.250;2024-03-02T01:06:00;99535.94;;;8.03;88.27
13593;BME280;6867;50.998;4.250;2024-03-02T01:08:29;99534.19;;;7.90;88.36
13593;BME280;6867;50.998;4.250;2024-03-02T01:10:56;99530.38;;;7.79;88.27
13593;BME280;6867;50.998;4.250;2024-03-02T01:13:23;99533.06;;;7.79;88.39
13593;BME280;6867;50.998;4.250;2024-03-02T01:15:50;99527.81;;;7.91;87.93
13593;BME280;6867;50.998;4.250;2024-03-02T01:18:16;99523.94;;;7.87;87.98
13593;BME280;6867;50.998;4.250;2024-03-02T01:20:43;99533.69;;;7.99;88.05
13593;BME280;6867;50.998;4.250;2024-03-02T01:23:10;99536.47;;;8.11;87.76
13593;BME280;6867;50.998;4.250;2024-03-02T01:25:38;99545.97;;;8.07;87.49
13593;BME280;6867;50.998;4.250;2024-03-02T01:28:05;99547.25;;;7.98;87.77
13593;BME280;6867;50.998;4.250;2024-03-02T01:30:32;99547.56;;;7.65;88.08
13593;BME280;6867;50.998;4.250;2024-03-02T01:32:59;99552.34;;;7.81;87.77
13593;BME280;6867;50.998;4.250;2024-03-02T01:35:25;99550.13;;;8.03;87.53
13593;BME280;6867;50.998;4.250;2024-03-02T01:37:52;99558.91;;;8.29;86.99
13593;BME280;6867;50.998;4.250;2024-03-02T01:40:19;99563.34;;;8.16;87.05
13593;BME280;6867;50.998;4.250;2024-03-02T01:42:47;99552.16;;;7.83;87.57
13593;BME280;6867;50.998;4.250;2024-03-02T01:45:14;99560.44;;;7.99;87.96
13593;BME280;6867;50.998;4.250;2024-03-02T01:47:41;99554.75;;;7.89;87.57
13593;BME280;6867;50.998;4.250;2024-03-02T01:50:08;99565.66;;;8.13;87.53
13593;BME280;6867;50.998;4.250;2024-03-02T01:52:37;99556.97;;;8.17;86.75
13593;BME280;6867;50.998;4.250;2024-03-02T01:55:09;99561.50;;;8.17;86.99
13593;BME280;6867;50.998;4.250;2024-03-02T01:57:36;99561.31;;;8.37;86.04
13593;BME280;6867;50.998;4.250;2024-03-02T02:00:05;99548.69;;;8.19;85.69
13593;BME280;6867;50.998;4.250;2024-03-02T02:02:35;99548.13;;;8.17;85.71
13593;BME280;6867;50.998;4.250;2024-03-02T02:05:02;99533.34;;;8.33;85.25
13593;BME280;6867;50.998;4.250;2024-03-02T02:07:29;99541.72;;;8.18;84.92
13593;BME280;6867;50.998;4.250;2024-03-02T02:09:55;99540.63;;;8.07;85.07
13593;BME280;6867;50.998;4.250;2024-03-02T02:12:22;99541.19;;;7.91;85.33
13593;BME280;6867;50.998;4.250;2024-03-02T02:14:49;99545.47;;;7.73;85.86
13593;BME280;6867;50.998;4.250;2024-03-02T02:17:17;99550.81;;;7.73;86.25
13593;BME280;6867;50.998;4.250;2024-03-02T02:19:44;99555.00;;;7.63;86.61
13593;BME280;6867;50.998;4.250;2024-03-02T02:22:12;99562.63;;;7.84;86.84
13593;BME280;6867;50.998;4.250;2024-03-02T02:24:40;99555.81;;;8.07;86.61
13593;BME280;6867;50.998;4.250;2024-03-02T02:27:06;99545.72;;;7.90;86.45
13593;BME280;6867;50.998;4.250;2024-03-02T02:29:33;99550.06;;;8.28;85.93
13593;BME280;6867;50.998;4.250;2024-03-02T02:32:00;99545.13;;;8.07;85.34
13593;BME280;6867;50.998;4.250;2024-03-02T02:34:27;99535.75;;;7.97;85.57
13593;BME280;6867;50.998;4.250;2024-03-02T02:36:53;99537.09;;;8.07;85.96
13593;BME280;6867;50.998;4.250;2024-03-02T02:39:22;99536.56;;;7.98;85.76
13593;BME280;6867;50.998;4.250;2024-03-02T02:41:49;99538.13;;;7.87;86.19
13593;BME280;6867;50.998;4.250;2024-03-02T02:44:15;99539.84;;;8.00;85.97
13593;BME280;6867;50.998;4.250;2024-03-02T02:46:42;99534.06;;;8.03;85.40
13593;BME280;6867;50.998;4.250;2024-03-02T02:49:09;99535.63;;;8.11;85.15
13593;BME280;6867;50.998;4.250;2024-03-02T02:51:35;99533.69;;;7.99;84.88
13593;BME280;6867;50.998;4.250;2024-03-02T02:54:02;99529.06;;;8.07;84.84
13593;BME280;6867;50.998;4.250;2024-03-02T02:56:30;99531.44;;;7.96;85.02
13593;BME280;6867;50.998;4.250;2024-03-02T02:58:57;99522.66;;;7.89;85.69
13593;BME280;6867;50.998;4.250;2024-03-02T03:01:24;99523.13;;;8.05;85.20
13593;BME280;6867;50.998;4.250;2024-03-02T03:03:51;99534.03;;;7.35;85.94
13593;BME280;6867;50.998;4.250;2024-03-02T03:06:17;99545.22;;;7.50;87.07
13593;BME280;6867;50.998;4.250;2024-03-02T03:08:44;99545.03;;;7.20;87.79
13593;BME280;6867;50.998;4.250;2024-03-02T03:11:11;99549.31;;;7.53;87.50
13593;BME280;6867;50.998;4.250;2024-03-02T03:13:39;99536.81;;;7.71;86.92
13593;BME280;6867;50.998;4.250;2024-03-02T03:16:06;99530.88;;;7.69;86.39
13593;BME280;6867;50.998;4.250;2024-03-02T03:18:32;99515.63;;;7.95;84.79
13593;BME280;6867;50.998;4.250;2024-03-02T03:20:59;99517.59;;;7.81;85.25
13593;BME280;6867;50.998;4.250;2024-03-02T03:23:26;99519.91;;;7.78;85.55
13593;BME280;6867;50.998;4.250;2024-03-02T03:25:52;99518.50;;;7.50;85.47
13593;BME280;6867;50.998;4.250;2024-03-02T03:28:19;99532.38;;;7.65;85.85
13593;BME280;6867;50.998;4.250;2024-03-02T03:30:47;99524.22;;;7.54;85.83
13593;BME280;6867;50.998;4.250;2024-03-02T03:33:14;99526.03;;;7.60;85.71
13593;BME280;6867;50.998;4.250;2024-03-02T03:35:40;99533.44;;;7.58;85.38
13593;BME280;6867;50.998;4.250;2024-03-02T03:38:07;99520.09;;;7.58;85.65
13593;BME280;6867;50.998;4.250;2024-03-02T03:40:34;99527.81;;;7.16;86.19
13593;BME280;6867;50.998;4.250;2024-03-02T03:43:00;99528.34;;;7.24;86.53
13593;BME280;6867;50.998;4.250;2024-03-02T03:45:27;99542.56;;;7.18;86.76
13593;BME280;6867;50.998;4.250;2024-03-02T03:47:57;99547.72;;;7.45;87.01
13593;BME280;6867;50.998;4.250;2024-03-02T03:50:23;99543.34;;;7.26;87.05
13593;BME280;6867;50.998;4.250;2024-03-02T03:52:50;99549.19;;;7.41;86.67
13593;BME280;6867;50.998;4.250;2024-03-02T03:55:17;99551.78;;;7.54;86.63
13593;BME280;6867;50.998;4.250;2024-03-02T03:57:44;99538.34;;;7.36;86.35
13593;BME280;6867;50.998;4.250;2024-03-02T04:00:11;99534.91;;;7.29;86.68
13593;BME280;6867;50.998;4.250;2024-03-02T04:02:38;99539.19;;;7.61;85.87
13593;BME280;6867;50.998;4.250;2024-03-02T04:05:07;99547.47;;;7.53;86.08
13593;BME280;6867;50.998;4.250;2024-03-02T04:07:36;99545.66;;;7.47;86.30
13593;BME280;6867;50.998;4.250;2024-03-02T04:10:07;99538.28;;;7.42;85.94
13593;BME280;6867;50.998;4.250;2024-03-02T04:12:35;99536.66;;;7.41;85.79
13593;BME280;6867;50.998;4.250;2024-03-02T04:15:04;99534.59;;;7.12;85.97
13593;BME280;6867;50.998;4.250;2024-03-02T04:17:32;99534.75;;;7.23;85.82
13593;BME280;6867;50.998;4.250;2024-03-02T04:19:59;99540.84;;;7.31;85.88
13593;BME280;6867;50.998;4.250;2024-03-02T04:22:27;99528.84;;;7.15;85.26
13593;BME280;6867;50.998;4.250;2024-03-02T04:24:54;99534.78;;;7.10;85.48
13593;BME280;6867;50.998;4.250;2024-03-02T04:27:21;99555.53;;;7.15;86.10
13593;BME280;6867;50.998;4.250;2024-03-02T04:29:48;99555.19;;;7.05;86.49
13593;BME280;6867;50.998;4.250;2024-03-02T04:32:15;99561.97;;;7.01;86.75
13593;BME280;6867;50.998;4.250;2024-03-02T04:34:41;99561.00;;;6.95;87.16
13593;BME280;6867;50.998;4.250;2024-03-02T04:37:08;99559.94;;;6.96;86.84
13593;BME280;6867;50.998;4.250;2024-03-02T04:39:37;99570.34;;;7.42;85.97
13593;BME280;6867;50.998;4.250;2024-03-02T04:42:04;99551.88;;;7.41;84.74
13593;BME280;6867;50.998;4.250;2024-03-02T04:44:37;99557.28;;;7.59;84.57
13593;BME280;6867;50.998;4.250;2024-03-02T04:47:04;99538.13;;;7.62;83.02
13593;BME280;6867;50.998;4.250;2024-03-02T04:49:31;99524.69;;;7.44;82.96
13593;BME280;6867;50.998;4.250;2024-03-02T04:51:57;99518.81;;;7.35;82.59
13593;BME280;6867;50.998;4.250;2024-03-02T04:54:24;99534.25;;;7.58;82.53
13593;BME280;6867;50.998;4.250;2024-03-02T04:56:52;99533.66;;;7.56;82.49
13593;BME280;6867;50.998;4.250;2024-03-02T04:59:19;99532.94;;;7.42;82.24
13593;BME280;6867;50.998;4.250;2024-03-02T05:01:46;99543.31;;;7.32;82.74
13593;BME280;6867;50.998;4.250;2024-03-02T05:04:13;99545.25;;;7.43;82.00
13593;BME280;6867;50.998;4.250;2024-03-02T05:06:40;99529.25;;;7.12;82.07
13593;BME280;6867;50.998;4.250;2024-03-02T05:09:07;99537.28;;;7.12;82.10
13593;BME280;6867;50.998;4.250;2024-03-02T05:11:34;99531.69;;;7.20;81.75
13593;BME280;6867;50.998;4.250;2024-03-02T05:14:28;99521.19;;;7.18;81.30
13593;BME280;6867;50.998;4.250;2024-03-02T05:16:55;99528.06;;;7.08;81.72
13593;BME280;6867;50.998;4.250;2024-03-02T05:19:21;99537.84;;;7.20;81.88
13593;BME280;6867;50.998;4.250;2024-03-02T05:21:48;99534.19;;;7.15;81.58
13593;BME280;6867;50.998;4.250;2024-03-02T05:24:15;99556.16;;;7.10;82.17
13593;BME280;6867;50.998;4.250;2024-03-02T05:26:41;99555.75;;;7.13;82.01
13593;BME280;6867;50.998;4.250;2024-03-02T05:29:08;99548.13;;;6.79;82.38
13593;BME280;6867;50.998;4.250;2024-03-02T05:31:36;99565.03;;;7.04;82.41
13593;BME280;6867;50.998;4.250;2024-03-02T05:34:03;99572.72;;;6.94;82.90
13593;BME280;6867;50.998;4.250;2024-03-02T05:36:30;99566.97;;;6.90;82.85
13593;BME280;6867;50.998;4.250;2024-03-02T05:38:57;99571.94;;;6.80;82.89
13593;BME280;6867;50.998;4.250;2024-03-02T05:41:24;99592.84;;;6.90;83.78
13593;BME280;6867;50.998;4.250;2024-03-02T05:43:50;99584.69;;;6.78;83.32
13593;BME280;6867;50.998;4.250;2024-03-02T05:46:17;99584.69;;;6.78;83.39
13593;BME280;6867;50.998;4.250;2024-03-02T05:48:45;99591.66;;;6.79;83.90
13593;BME280;6867;50.998;4.250;2024-03-02T05:51:12;99590.22;;;6.77;83.04
13593;BME280;6867;50.998;4.250;2024-03-02T05:53:38;99587.38;;;6.71;83.64
13593;BME280;6867;50.998;4.250;2024-03-02T05:56:05;99575.53;;;6.54;83.57
13593;BME280;6867;50.998;4.250;2024-03-02T05:58:32;99583.06;;;6.64;83.64
13593;BME280;6867;50.998;4.250;2024-03-02T06:01:11;99583.94;;;6.51;84.02
13593;BME280;6867;50.998;4.250;2024-03-02T06:03:38;99591.13;;;6.51;83.92
13593;BME280;6867;50.998;4.250;2024-03-02T06:06:06;99581.28;;;6.58;84.04
13593;BME280;6867;50.998;4.250;2024-03-02T06:08:33;99584.84;;;6.32;84.69
13593;BME280;6867;50.998;4.250;2024-03-02T06:11:00;99602.50;;;6.19;85.21
13593;BME280;6867;50.998;4.250;2024-03-02T06:13:27;99614.81;;;6.07;86.23
13593;BME280;6867;50.998;4.250;2024-03-02T06:15:53;99609.25;;;6.22;86.32
13593;BME280;6867;50.998;4.250;2024-03-02T06:18:20;99612.53;;;6.24;85.55
13593;BME280;6867;50.998;4.250;2024-03-02T06:20:47;99601.44;;;6.34;85.37
13593;BME280;6867;50.998;4.250;2024-03-02T06:23:15;99607.41;;;6.29;85.13
13593;BME280;6867;50.998;4.250;2024-03-02T06:25:42;99605.53;;;6.36;85.89
13593;BME280;6867;50.998;4.250;2024-03-02T06:28:09;99599.00;;;6.32;85.59
13593;BME280;6867;50.998;4.250;2024-03-02T06:30:35;99612.13;;;6.27;85.59
13593;BME280;6867;50.998;4.250;2024-03-02T06:33:02;99603.06;;;6.35;85.03
13593;BME280;6867;50.998;4.250;2024-03-02T06:35:30;99603.69;;;6.37;85.55
13593;BME280;6867;50.998;4.250;2024-03-02T06:37:57;99601.22;;;6.42;85.07
13593;BME280;6867;50.998;4.250;2024-03-02T06:40:24;99598.72;;;6.54;84.54
13593;BME280;6867;50.998;4.250;2024-03-02T06:42:51;99589.50;;;6.49;84.35
13593;BME280;6867;50.998;4.250;2024-03-02T06:45:17;99579.88;;;6.42;83.70
13593;BME280;6867;50.998;4.250;2024-03-02T06:47:44;99579.69;;;6.37;83.98
13593;BME280;6867;50.998;4.250;2024-03-02T06:50:11;99608.22;;;6.30;84.61
13593;BME280;6867;50.998;4.250;2024-03-02T06:52:38;99617.44;;;6.40;85.02
13593;BME280;6867;50.998;4.250;2024-03-02T06:55:06;99607.13;;;6.51;84.28
13593;BME280;6867;50.998;4.250;2024-03-02T06:57:34;99606.53;;;6.35;84.60
13593;BME280;6867;50.998;4.250;2024-03-02T07:00:00;99616.63;;;6.40;85.04
13593;BME280;6867;50.998;4.250;2024-03-02T07:02:30;99636.06;;;6.47;85.45
13593;BME280;6867;50.998;4.250;2024-03-02T07:04:57;99634.63;;;6.58;84.97
13593;BME280;6867;50.998;4.250;2024-03-02T07:07:23;99626.00;;;6.56;85.17
13593;BME280;6867;50.998;4.250;2024-03-02T07:09:50;99629.94;;;6.46;85.74
13593;BME280;6867;50.998;4.250;2024-03-02T07:12:16;99638.28;;;6.70;85.84
13593;BME280;6867;50.998;4.250;2024-03-02T07:14:44;99651.19;;;6.86;85.62
13593;BME280;6867;50.998;4.250;2024-03-02T07:17:28;99633.28;;;6.93;85.26
13593;BME280;6867;50.998;4.250;2024-03-02T07:19:55;99636.75;;;7.01;85.09
13593;BME280;6867;50.998;4.250;2024-03-02T07:22:22;99636.28;;;7.10;84.97
13593;BME280;6867;50.998;4.250;2024-03-02T07:24:49;99626.69;;;7.03;84.80
13593;BME280;6867;50.998;4.250;2024-03-02T07:27:16;99633.66;;;6.97;84.97
13593;BME280;6867;50.998;4.250;2024-03-02T07:29:44;99639.56;;;7.12;84.94
13593;BME280;6867;50.998;4.250;2024-03-02T07:32:11;99633.19;;;7.13;84.78
13593;BME280;6867;50.998;4.250;2024-03-02T07:34:38;99640.38;;;7.51;84.58
13593;BME280;6867;50.998;4.250;2024-03-02T07:37:05;99619.56;;;7.60;83.86
13593;BME280;6867;50.998;4.250;2024-03-02T07:39:31;99622.03;;;7.61;83.58
13593;BME280;6867;50.998;4.250;2024-03-02T07:41:59;99617.66;;;7.67;83.06
13593;BME280;6867;50.998;4.250;2024-03-02T07:44:26;99620.94;;;7.37;83.85
13593;BME280;6867;50.998;4.250;2024-03-02T07:46:54;99619.31;;;7.36;84.12
13593;BME280;6867;50.998;4.250;2024-03-02T07:49:21;99597.09;;;7.67;82.94
13593;BME280;6867;50.998;4.250;2024-03-02T07:51:47;99593.34;;;7.43;82.93
13593;BME280;6867;50.998;4.250;2024-03-02T07:54:14;99607.69;;;7.17;83.87
13593;BME280;6867;50.998;4.250;2024-03-02T07:56:40;99627.84;;;7.52;84.39
13593;BME280;6867;50.998;4.250;2024-03-02T07:59:07;99618.59;;;7.47;84.14
13593;BME280;6867;50.998;4.250;2024-03-02T08:01:34;99601.47;;;7.62;83.58
13593;BME280;6867;50.998;4.250;2024-03-02T08:04:03;99603.88;;;7.70;83.17
13593;BME280;6867;50.998;4.250;2024-03-02T08:06:30;99620.31;;;7.73;83.11
13593;BME280;6867;50.998;4.250;2024-03-02T08:08:57;99618.19;;;7.82;82.64
13593;BME280;6867;50.998;4.250;2024-03-02T08:11:24;99591.44;;;8.07;81.41
13593;BME280;6867;50.998;4.250;2024-03-02T08:13:52;99588.50;;;8.34;79.89
13593;BME280;6867;50.998;4.250;2024-03-02T08:16:20;99557.44;;;8.51;79.24
13593;BME280;6867;50.998;4.250;2024-03-02T08:18:47;99578.78;;;8.58;78.51
13593;BME280;6867;50.998;4.250;2024-03-02T08:21:16;99610.16;;;8.69;79.05
13593;BME280;6867;50.998;4.250;2024-03-02T08:23:43;99594.41;;;8.79;78.43
13593;BME280;6867;50.998;4.250;2024-03-02T08:26:10;99596.47;;;8.95;78.58
13593;BME280;6867;50.998;4.250;2024-03-02T08:28:37;99595.56;;;8.28;78.88
13593;BME280;6867;50.998;4.250;2024-03-02T08:31:05;99621.81;;;8.38;79.19
13593;BME280;6867;50.998;4.250;2024-03-02T08:33:32;99624.44;;;8.63;79.49
13593;BME280;6867;50.998;4.250;2024-03-02T08:35:59;99625.69;;;8.60;79.82
13593;BME280;6867;50.998;4.250;2024-03-02T08:38:28;99632.44;;;9.18;78.57
13593;BME280;6867;50.998;4.250;2024-03-02T08:40:55;99609.94;;;8.70;78.75
13593;BME280;6867;50.998;4.250;2024-03-02T08:43:21;99617.47;;;8.62;78.46
13593;BME280;6867;50.998;4.250;2024-03-02T08:45:49;99632.69;;;8.98;78.73
13593;BME280;6867;50.998;4.250;2024-03-02T08:48:16;99616.50;;;8.75;78.85
13593;BME280;6867;50.998;4.250;2024-03-02T08:50:46;99604.38;;;8.90;78.35
13593;BME280;6867;50.998;4.250;2024-03-02T08:53:12;99605.31;;;9.26;77.19
13593;BME280;6867;50.998;4.250;2024-03-02T08:55:45;99617.03;;;9.43;76.16
13593;BME280;6867;50.998;4.250;2024-03-02T08:58:12;99608.06;;;9.38;76.13
13593;BME280;6867;50.998;4.250;2024-03-02T09:00:39;99603.25;;;9.70;75.58
13593;BME280;6867;50.998;4.250;2024-03-02T09:03:06;99572.91;;;9.58;74.83
13593;BME280;6867;50.998;4.250;2024-03-02T09:05:33;99588.72;;;9.47;75.18
13593;BME280;6867;50.998;4.250;2024-03-02T09:08:00;99605.31;;;9.68;74.78
13593;BME280;6867;50.998;4.250;2024-03-02T09:10:29;99606.84;;;9.64;75.07
13593;BME280;6867;50.998;4.250;2024-03-02T09:12:57;99616.06;;;9.68;74.93
13593;BME280;6867;50.998;4.250;2024-03-02T09:15:24;99604.91;;;9.94;74.54
13593;BME280;6867;50.998;4.250;2024-03-02T09:17:51;99587.88;;;10.01;73.79
13593;BME280;6867;50.998;4.250;2024-03-02T09:20:17;99575.88;;;9.91;73.65
13593;BME280;6867;50.998;4.250;2024-03-02T09:22:44;99601.44;;;10.17;73.40
13593;BME280;6867;50.998;4.250;2024-03-02T09:25:12;99587.66;;;10.02;73.73
13593;BME280;6867;50.998;4.250;2024-03-02T09:27:39;99560.03;;;10.25;71.46
13593;BME280;6867;50.998;4.250;2024-03-02T09:30:10;99589.06;;;10.16;72.84
13593;BME280;6867;50.998;4.250;2024-03-02T09:32:37;99559.31;;;10.41;71.80
13593;BME280;6867;50.998;4.250;2024-03-02T09:35:04;99559.78;;;10.50;71.71
13593;BME280;6867;50.998;4.250;2024-03-02T09:37:31;99559.03;;;10.66;71.40
13593;BME280;6867;50.998;4.250;2024-03-02T09:39:57;99557.53;;;10.59;71.11
13593;BME280;6867;50.998;4.250;2024-03-02T09:42:24;99540.06;;;10.73;70.61
13593;BME280;6867;50.998;4.250;2024-03-02T09:44:51;99526.16;;;11.33;69.18
13593;BME280;6867;50.998;4.250;2024-03-02T09:47:19;99510.53;;;11.02;69.08
13593;BME280;6867;50.998;4.250;2024-03-02T09:49:46;99509.34;;;11.09;68.71
13593;BME280;6867;50.998;4.250;2024-03-02T09:52:13;99498.16;;;10.72;69.32
13593;BME280;6867;50.998;4.250;2024-03-02T09:54:40;99525.44;;;11.38;68.41
13593;BME280;6867;50.998;4.250;2024-03-02T09:57:07;99494.63;;;11.62;67.53
13593;BME280;6867;50.998;4.250;2024-03-02T09:59:33;99467.91;;;11.56;66.92
13593;BME280;6867;50.998;4.250;2024-03-02T10:02:01;99495.84;;;11.55;67.30
13593;BME280;6867;50.998;4.250;2024-03-02T10:04:29;99515.16;;;11.35;68.08
13593;BME280;6867;50.998;4.250;2024-03-02T10:07:10;99482.97;;;11.57;66.78
13593;BME280;6867;50.998;4.250;2024-03-02T10:09:38;99507.75;;;11.59;67.41
13593;BME280;6867;50.998;4.250;2024-03-02T10:12:05;99472.13;;;11.68;66.40
13593;BME280;6867;50.998;4.250;2024-03-02T10:14:33;99492.97;;;11.61;66.86
13593;BME280;6867;50.998;4.250;2024-03-02T10:17:03;99514.91;;;11.87;67.21
13593;BME280;6867;50.998;4.250;2024-03-02T10:19:32;99463.06;;;11.91;65.67
13593;BME280;6867;50.998;4.250;2024-03-02T10:22:00;99500.56;;;11.98;66.42
13593;BME280;6867;50.998;4.250;2024-03-02T10:24:35;99470.84;;;12.32;65.56
13593;BME280;6867;50.998;4.250;2024-03-02T10:27:07;99463.97;;;12.19;65.13
13593;BME280;6867;50.998;4.250;2024-03-02T10:29:37;99465.56;;;11.98;65.27
13593;BME280;6867;50.998;4.250;2024-03-02T10:32:04;99493.63;;;12.24;65.57
13593;BME280;6867;50.998;4.250;2024-03-02T10:34:33;99468.03;;;12.21;65.00
13593;BME280;6867;50.998;4.250;2024-03-02T10:37:00;99487.28;;;12.30;65.14
13593;BME280;6867;50.998;4.250;2024-03-02T10:39:28;99479.84;;;12.91;64.52
13593;BME280;6867;50.998;4.250;2024-03-02T10:41:55;99473.53;;;13.30;63.88
13593;BME280;6867;50.998;4.250;2024-03-02T10:44:23;99457.13;;;13.36;63.42
13593;BME280;6867;50.998;4.250;2024-03-02T10:46:50;99419.41;;;13.09;62.91
13593;BME280;6867;50.998;4.250;2024-03-02T10:49:20;99416.16;;;13.12;62.83
13593;BME280;6867;50.998;4.250;2024-03-02T10:51:50;99397.84;;;12.82;62.69
13593;BME280;6867;50.998;4.250;2024-03-02T10:54:17;99440.88;;;13.26;62.45
13593;BME280;6867;50.998;4.250;2024-03-02T10:56:51;99433.13;;;13.08;62.35
13593;BME280;6867;50.998;4.250;2024-03-02T10:59:24;99423.91;;;13.31;62.10
13593;BME280;6867;50.998;4.250;2024-03-02T11:01:56;99425.50;;;13.27;61.97
13593;BME280;6867;50.998;4.250;2024-03-02T11:04:25;99364.22;;;13.22;60.94
13593;BME280;6867;50.998;4.250;2024-03-02T11:06:58;99381.97;;;13.13;61.29
13593;BME280;6867;50.998;4.250;2024-03-02T11:09:27;99347.81;;;13.24;60.58
13593;BME280;6867;50.998;4.250;2024-03-02T11:12:03;99340.16;;;13.53;59.78
13593;BME280;6867;50.998;4.250;2024-03-02T11:14:31;99336.25;;;13.33;59.90
13593;BME280;6867;50.998;4.250;2024-03-02T11:17:00;99344.16;;;13.45;59.81
13593;BME280;6867;50.998;4.250;2024-03-02T11:19:29;99435.88;;;14.50;60.45
13593;BME280;6867;50.998;4.250;2024-03-02T11:21:58;99362.44;;;14.84;58.62
13593;BME280;6867;50.998;4.250;2024-03-02T11:24:30;99325.69;;;14.98;57.39
13593;BME280;6867;50.998;4.250;2024-03-02T11:26:58;99269.75;;;14.53;56.97
13593;BME280;6867;50.998;4.250;2024-03-02T11:29:43;99319.06;;;14.07;58.15
13593;BME280;6867;50.998;4.250;2024-03-02T11:32:14;99311.06;;;13.55;59.17
13593;BME280;6867;50.998;4.250;2024-03-02T11:34:42;99293.31;;;13.74;58.53
13593;BME280;6867;50.998;4.250;2024-03-02T11:37:13;99319.13;;;14.38;57.64
13593;BME280;6867;50.998;4.250;2024-03-02T11:39:42;99261.63;;;14.88;56.12
13593;BME280;6867;50.998;4.250;2024-03-02T11:42:10;99319.91;;;14.33;57.65
13593;BME280;6867;50.998;4.250;2024-03-02T11:44:40;99300.50;;;14.47;56.67
13593;BME280;6867;50.998;4.250;2024-03-02T11:47:08;99343.94;;;14.25;58.01
13593;BME280;6867;50.998;4.250;2024-03-02T11:49:38;99339.03;;;14.06;58.34
13593;BME280;6867;50.998;4.250;2024-03-02T11:52:06;99355.03;;;14.18;58.54
13593;BME280;6867;50.998;4.250;2024-03-02T11:54:35;99342.44;;;14.69;58.07
13593;BME280;6867;50.998;4.250;2024-03-02T11:57:05;99368.94;;;14.67;58.62
13593;BME280;6867;50.998;4.250;2024-03-02T11:59:32;99332.25;;;13.99;59.07
13593;BME280;6867;50.998;4.250;2024-03-02T12:02:00;99350.13;;;13.52;59.96
13593;BME280;6867;50.998;4.250;2024-03-02T12:04:26;99326.69;;;14.31;58.00
13593;BME280;6867;50.998;4.250;2024-03-02T12:06:54;99327.03;;;14.55;58.10
13593;BME280;6867;50.998;4.250;2024-03-02T12:09:23;99342.72;;;14.93;57.88
13593;BME280;6867;50.998;4.250;2024-03-02T12:12:03;99331.88;;;15.09;57.47
13593;BME280;6867;50.998;4.250;2024-03-02T12:14:30;99308.03;;;14.19;58.36
13593;BME280;6867;50.998;4.250;2024-03-02T12:16:57;99331.22;;;14.10;59.21
13593;BME280;6867;50.998;4.250;2024-03-02T12:19:24;99344.97;;;13.98;59.92
13593;BME280;6867;50.998;4.250;2024-03-02T12:21:51;99350.72;;;14.27;59.74
13593;BME280;6867;50.998;4.250;2024-03-02T12:24:18;99307.16;;;14.03;59.20
13593;BME280;6867;50.998;4.250;2024-03-02T12:26:45;99283.97;;;14.07;59.15
13593;BME280;6867;50.998;4.250;2024-03-02T12:29:18;99324.22;;;14.19;59.63
13593;BME280;6867;50.998;4.250;2024-03-02T12:31:45;99316.22;;;14.75;58.59
13593;BME280;6867;50.998;4.250;2024-03-02T12:34:12;99318.78;;;15.57;57.76
13593;BME280;6867;50.998;4.250;2024-03-02T12:36:40;99273.25;;;15.84;56.07
13593;BME280;6867;50.998;4.250;2024-03-02T12:39:07;99262.78;;;15.67;56.03
13593;BME280;6867;50.998;4.250;2024-03-02T12:41:36;99222.44;;;15.66;55.42
13593;BME280;6867;50.998;4.250;2024-03-02T12:44:01;99274.88;;;15.85;56.06
13593;BME280;6867;50.998;4.250;2024-03-02T12:46:29;99226.91;;;15.26;55.97
13593;BME280;6867;50.998;4.250;2024-03-02T12:48:56;99258.16;;;16.12;55.20
13593;BME280;6867;50.998;4.250;2024-03-02T12:51:24;99288.22;;;16.16;56.08
13593;BME280;6867;50.998;4.250;2024-03-02T12:53:53;99243.31;;;16.10;55.28
13593;BME280;6867;50.998;4.250;2024-03-02T12:56:20;99244.88;;;15.61;56.09
13593;BME280;6867;50.998;4.250;2024-03-02T12:58:47;99248.78;;;15.35;56.92
13593;BME280;6867;50.998;4.250;2024-03-02T13:01:14;99231.16;;;15.48;56.39
13593;BME280;6867;50.998;4.250;2024-03-02T13:03:48;99245.47;;;15.53;56.95
13593;BME280;6867;50.998;4.250;2024-03-02T13:06:16;99215.06;;;15.77;55.52
13593;BME280;6867;50.998;4.250;2024-03-02T13:08:43;99201.72;;;15.36;56.04
13593;BME280;6867;50.998;4.250;2024-03-02T13:11:09;99202.31;;;15.23;56.21
13593;BME280;6867;50.998;4.250;2024-03-02T13:13:36;99244.53;;;15.13;57.44
13593;BME280;6867;50.998;4.250;2024-03-02T13:16:06;99231.63;;;14.75;57.65
13593;BME280;6867;50.998;4.250;2024-03-02T13:18:34;99223.09;;;15.32;56.28
13593;BME280;6867;50.998;4.250;2024-03-02T13:21:02;99239.59;;;15.26;56.52